Midnight Sun — CFG7615 — position and weather

sailwx.info

Track history (hours):
 
Tides and Currents Weather Stations Pressure Air Temp Water Temp Dewpoint Dewpoint Depression Visibility Wind Speed Wind Dir Waves Ship Positions

Midnight Sun

Last reported at 2014-Sep-02 20:32 UTC. Time now 2014-Sep-02 21:25 UTC.
Position N 49°18' W 123°08'.

Length 25 m; draft 3.1 m.

Type: Pleasure craft. MMSI: 316001152.

Date/timePositionNaut miles runAvg speedWind from/ knotsBaromVisibWave heightAir tempDewpointWater temp
2014-Sep-02 20:32N 49°18' W 123°08'0 0.0
2014-Sep-02 19:32N 49°18' W 123°08'0 0.0
2014-Sep-02 18:32N 49°18' W 123°08'0 0.0
2014-Sep-02 17:32N 49°18' W 123°08'0 0.0
2014-Sep-02 16:32N 49°18' W 123°08'0 0.0
2014-Sep-02 15:32N 49°18' W 123°08'0 0.0
2014-Sep-02 14:32N 49°18' W 123°08'0 0.0
2014-Sep-02 13:32N 49°18' W 123°08'0 0.0
2014-Sep-02 12:32N 49°18' W 123°08'0 0.0
2014-Sep-02 11:32N 49°18' W 123°08'0 0.0
2014-Sep-02 10:32N 49°18' W 123°08'0 0.0
2014-Sep-02 09:32N 49°18' W 123°08'0 0.0
2014-Sep-02 08:32N 49°18' W 123°08'0 0.0
2014-Sep-02 07:32N 49°18' W 123°08'0 0.0
2014-Sep-02 06:32N 49°18' W 123°08'0 0.0
2014-Sep-02 05:32N 49°18' W 123°08'0 0.0
2014-Sep-02 04:32N 49°18' W 123°08'0 0.0
2014-Sep-02 03:32N 49°18' W 123°08'0 0.0
2014-Sep-02 02:32N 49°18' W 123°08'0 0.0
2014-Sep-02 01:32N 49°18' W 123°08'0 0.0
2014-Sep-02 00:32N 49°18' W 123°08'0 0.0
2014-Sep-01 23:32N 49°18' W 123°08'0 0.0
2014-Sep-01 22:32N 49°18' W 123°08'4 4.4
2014-Sep-01 21:33N 49°18' W 123°14'8 8.3
2014-Sep-01 20:33N 49°10' W 123°19'9 9.1
2014-Sep-01 19:32N 49°01' W 123°19'9 8.8
2014-Sep-01 18:33N 48°53' W 123°18'18 8.1
2014-Sep-01 16:21N 48°35' W 123°19'7 9.4
2014-Sep-01 15:33N 48°28' W 123°15'6 6.3
2014-Sep-01 14:33N 48°25' W 123°24'1 0.2
2014-Sep-01 09:03N 48°25' W 123°22'0 0.0
2014-Aug-31 20:33N 48°25' W 123°23'1 1.2
2014-Aug-31 19:33N 48°24' W 123°24'1 1.1
2014-Aug-31 18:32N 48°25' W 123°23'0 0.4
2014-Aug-31 17:28N 48°25' W 123°22'0 0.0
2014-Aug-31 16:28N 48°25' W 123°22'0 0.0
2014-Aug-31 15:28N 48°25' W 123°22'0 0.0
2014-Aug-31 14:28N 48°25' W 123°22'0 0.0
2014-Aug-31 13:28N 48°25' W 123°22'0 0.0
2014-Aug-31 12:31N 48°25' W 123°22'0 0.0
2014-Aug-31 11:28N 48°25' W 123°22'0 0.0
2014-Aug-31 10:28N 48°25' W 123°22'0 0.0
2014-Aug-31 09:28N 48°25' W 123°22'0 0.0
2014-Aug-31 08:31N 48°25' W 123°22'0 0.0
2014-Aug-31 07:31N 48°25' W 123°22'0 0.0
2014-Aug-31 06:32N 48°25' W 123°22'0 0.0
2014-Aug-31 05:28N 48°25' W 123°22'0 0.0
2014-Aug-31 04:25N 48°25' W 123°22'0 0.0
2014-Aug-31 03:32N 48°25' W 123°22'0 0.0
2014-Aug-31 00:31N 48°25' W 123°22'0 0.0
2014-Aug-30 23:13N 48°25' W 123°22'0 0.0
2014-Aug-30 21:32N 48°25' W 123°22'0 0.0
2014-Aug-30 20:31N 48°25' W 123°22'0 0.0
2014-Aug-30 19:13N 48°25' W 123°22'0 0.0
2014-Aug-30 18:25N 48°25' W 123°22'0 0.0
2014-Aug-30 17:31N 48°25' W 123°22'0 0.0
2014-Aug-30 16:33N 48°25' W 123°22'0 0.0
2014-Aug-30 15:33N 48°25' W 123°22'0 0.0
2014-Aug-30 14:33N 48°25' W 123°22'0 0.0
2014-Aug-30 13:33N 48°25' W 123°22'0 0.0
2014-Aug-30 12:33N 48°25' W 123°22'0 0.0
2014-Aug-30 11:33N 48°25' W 123°22'0 0.0
2014-Aug-30 10:25N 48°25' W 123°22'0 0.0
2014-Aug-30 09:31N 48°25' W 123°22'0 0.0
2014-Aug-30 08:31N 48°25' W 123°22'0 0.0
2014-Aug-30 07:31N 48°25' W 123°22'0 0.0
2014-Aug-30 06:31N 48°25' W 123°22'0 0.0
2014-Aug-30 05:31N 48°25' W 123°22'0 0.0
2014-Aug-30 04:25N 48°25' W 123°22'0 0.0
2014-Aug-30 03:31N 48°25' W 123°22'0 0.0
2014-Aug-30 02:31N 48°25' W 123°22'0 0.0
2014-Aug-30 01:31N 48°25' W 123°22'0 0.0
2014-Aug-30 00:31N 48°25' W 123°22'0 0.0
2014-Aug-29 23:31N 48°25' W 123°22'0 0.0
2014-Aug-29 22:26N 48°25' W 123°22'0 0.0
2014-Aug-29 21:32N 48°25' W 123°22'0 0.0
2014-Aug-29 17:14N 48°25' W 123°22'0 0.0
2014-Aug-29 16:32N 48°25' W 123°22'0 0.0
2014-Aug-29 15:20N 48°25' W 123°22'0 0.0
2014-Aug-29 14:32N 48°25' W 123°22'0 0.0
2014-Aug-29 13:32N 48°25' W 123°22'0 0.0
2014-Aug-29 12:32N 48°25' W 123°22'0 0.0
2014-Aug-29 11:32N 48°25' W 123°22'0 0.0
2014-Aug-29 10:29N 48°25' W 123°22'0 0.0
2014-Aug-29 09:29N 48°25' W 123°22'0 0.0
2014-Aug-29 08:29N 48°25' W 123°22'0 0.0
2014-Aug-29 07:32N 48°25' W 123°22'0 0.0
2014-Aug-29 06:32N 48°25' W 123°22'0 0.0
2014-Aug-29 03:11N 48°25' W 123°22'0 0.0
2014-Aug-29 00:29N 48°25' W 123°22'0 0.0
2014-Aug-28 23:23N 48°25' W 123°22'0 0.0
2014-Aug-28 22:28N 48°25' W 123°22'1 1.6
2014-Aug-28 21:33N 48°24' W 123°23'6 6.3
2014-Aug-28 20:33N 48°27' W 123°15'28 9.2
2014-Aug-28 17:32N 48°55' W 123°18'9 9.1
2014-Aug-28 16:33N 49°04' W 123°19'9 8.8
2014-Aug-28 15:33N 49°13' W 123°19'8 7.9
2014-Aug-28 14:33N 49°19' W 123°11'2 2.3
2014-Aug-28 13:32N 49°18' W 123°08'0 0.0
2014-Aug-28 12:32N 49°18' W 123°08'0 0.0
2014-Aug-28 11:32N 49°18' W 123°08'0 0.0
2014-Aug-28 10:32N 49°18' W 123°08'0 0.0
2014-Aug-28 09:32N 49°18' W 123°08'0 0.0
2014-Aug-28 08:32N 49°18' W 123°08'0 0.0
2014-Aug-28 07:32N 49°18' W 123°08'0 0.0
2014-Aug-28 06:32N 49°18' W 123°08'0 0.0
2014-Aug-28 05:32N 49°18' W 123°08'0 0.0
2014-Aug-28 04:32N 49°18' W 123°08'0 0.0
2014-Aug-28 03:32N 49°18' W 123°08'0 0.0
2014-Aug-28 02:29N 49°18' W 123°08'0 0.0
2014-Aug-28 01:32N 49°18' W 123°08'0 0.0
2014-Aug-28 00:32N 49°18' W 123°08'0 0.0
2014-Aug-27 23:32N 49°18' W 123°08'0 0.0
2014-Aug-27 22:32N 49°18' W 123°08'0 0.0
2014-Aug-27 21:32N 49°18' W 123°08'0 0.0
2014-Aug-27 20:32N 49°18' W 123°08'0 0.0
2014-Aug-27 19:32N 49°18' W 123°08'0 0.0
2014-Aug-27 18:32N 49°18' W 123°08'0 0.0
2014-Aug-27 17:32N 49°18' W 123°08'0 0.0
2014-Aug-27 16:32N 49°18' W 123°08'0 0.0
2014-Aug-27 15:32N 49°18' W 123°08'0 0.0
2014-Aug-27 14:32N 49°18' W 123°08'0 0.0
2014-Aug-27 13:32N 49°18' W 123°08'0 0.0
2014-Aug-27 12:32N 49°18' W 123°08'0 0.0
2014-Aug-27 11:32N 49°18' W 123°08'0 0.0
2014-Aug-27 10:32N 49°18' W 123°08'0 0.0
2014-Aug-27 09:32N 49°18' W 123°08'0 0.0
2014-Aug-27 08:29N 49°18' W 123°08'0 0.0
2014-Aug-27 07:32N 49°18' W 123°08'0 0.0
2014-Aug-27 06:32N 49°18' W 123°08'0 0.0
2014-Aug-27 05:32N 49°18' W 123°08'0 0.0
2014-Aug-27 04:32N 49°18' W 123°08'0 0.0
2014-Aug-27 03:32N 49°18' W 123°08'0 0.0
2014-Aug-27 02:32N 49°18' W 123°08'0 0.0
2014-Aug-27 01:32N 49°18' W 123°08'0 0.0
2014-Aug-27 00:32N 49°18' W 123°08'0 0.0
2014-Aug-26 23:32N 49°18' W 123°08'0 0.0
2014-Aug-26 22:32N 49°18' W 123°08'0 0.0
2014-Aug-26 21:32N 49°18' W 123°08'0 0.0
2014-Aug-26 20:32N 49°18' W 123°08'0 0.0
2014-Aug-26 19:32N 49°18' W 123°08'0 0.0
2014-Aug-26 18:32N 49°18' W 123°08'0 0.0
2014-Aug-26 17:32N 49°18' W 123°08'0 0.0
2014-Aug-26 16:33N 49°18' W 123°08'0 0.0
2014-Aug-26 15:33N 49°18' W 123°08'0 0.0
2014-Aug-26 14:33N 49°18' W 123°08'0 0.0
2014-Aug-26 13:33N 49°18' W 123°08'0 0.0
2014-Aug-26 12:33N 49°18' W 123°08'0 0.0
2014-Aug-26 11:33N 49°18' W 123°08'0 0.0
2014-Aug-26 10:33N 49°18' W 123°08'0 0.0
2014-Aug-26 09:31N 49°18' W 123°08'0 0.0
2014-Aug-26 08:31N 49°18' W 123°08'0 0.0
2014-Aug-26 07:31N 49°18' W 123°08'0 0.0
2014-Aug-26 06:31N 49°18' W 123°08'0 0.0
2014-Aug-26 05:31N 49°18' W 123°08'0 0.0
2014-Aug-26 04:31N 49°18' W 123°08'0 0.0
2014-Aug-26 03:31N 49°18' W 123°08'0 0.0
2014-Aug-26 02:31N 49°18' W 123°08'0 0.0
2014-Aug-26 01:31N 49°18' W 123°08'0 0.0
2014-Aug-26 00:31N 49°18' W 123°08'0 0.0
2014-Aug-25 23:31N 49°18' W 123°08'0 0.0
2014-Aug-25 22:31N 49°18' W 123°08'0 0.0
2014-Aug-25 21:31N 49°18' W 123°08'0 0.0
2014-Aug-25 20:31N 49°18' W 123°08'0 0.0
2014-Aug-25 19:31N 49°18' W 123°08'0 0.0
2014-Aug-25 18:31N 49°18' W 123°08'0 0.0
2014-Aug-25 17:29N 49°18' W 123°08'0 0.0
2014-Aug-25 16:32N 49°18' W 123°08'0 0.0
2014-Aug-25 15:32N 49°18' W 123°08'0 0.0
2014-Aug-25 14:32N 49°18' W 123°08'0 0.0
2014-Aug-25 13:32N 49°18' W 123°08'0 0.0
2014-Aug-25 12:32N 49°18' W 123°08'0 0.0
2014-Aug-25 11:32N 49°18' W 123°08'0 0.0
2014-Aug-25 10:32N 49°18' W 123°08'0 0.0
2014-Aug-25 09:32N 49°18' W 123°08'0 0.0
2014-Aug-25 08:32N 49°18' W 123°08'0 0.0
2014-Aug-25 07:32N 49°18' W 123°08'0 0.0
2014-Aug-25 06:32N 49°18' W 123°08'0 0.0
2014-Aug-25 05:32N 49°18' W 123°08'0 0.0
2014-Aug-25 04:33N 49°18' W 123°08'0 0.0
2014-Aug-25 03:31N 49°18' W 123°08'0 0.0
2014-Aug-25 02:31N 49°18' W 123°08'0 0.0
2014-Aug-25 01:31N 49°18' W 123°08'0 0.0
2014-Aug-25 00:31N 49°18' W 123°08'0 0.0
2014-Aug-24 23:31N 49°18' W 123°08'0 0.0
2014-Aug-24 22:31N 49°18' W 123°08'3 3.4
2014-Aug-24 21:33N 49°18' W 123°13'9 9.0
2014-Aug-24 20:33N 49°14' W 123°25'9 8.7
2014-Aug-24 19:30N 49°10' W 123°38'  
Track history (hours):
 
Tides and Currents Weather Stations Pressure Air Temp Water Temp Dewpoint Dewpoint Depression Visibility Wind Speed Wind Dir Waves Ship Positions

Midnight Sun

Last reported at 2014-Sep-02 20:32 UTC. Time now 2014-Sep-02 21:25 UTC.
Position N 49°18' W 123°08'.

Length 25 m; draft 3.1 m.

Type: Pleasure craft. MMSI: 316001152.

Date/timePositionNaut miles runAvg speedWind from/ knotsBaromVisibWave heightAir tempDewpointWater temp
2014-Sep-02 20:32N 49°18' W 123°08'0 0.0
2014-Sep-02 19:32N 49°18' W 123°08'0 0.0
2014-Sep-02 18:32N 49°18' W 123°08'0 0.0
2014-Sep-02 17:32N 49°18' W 123°08'0 0.0
2014-Sep-02 16:32N 49°18' W 123°08'0 0.0
2014-Sep-02 15:32N 49°18' W 123°08'0 0.0
2014-Sep-02 14:32N 49°18' W 123°08'0 0.0
2014-Sep-02 13:32N 49°18' W 123°08'0 0.0
2014-Sep-02 12:32N 49°18' W 123°08'0 0.0
2014-Sep-02 11:32N 49°18' W 123°08'0 0.0
2014-Sep-02 10:32N 49°18' W 123°08'0 0.0
2014-Sep-02 09:32N 49°18' W 123°08'0 0.0
2014-Sep-02 08:32N 49°18' W 123°08'0 0.0
2014-Sep-02 07:32N 49°18' W 123°08'0 0.0
2014-Sep-02 06:32N 49°18' W 123°08'0 0.0
2014-Sep-02 05:32N 49°18' W 123°08'0 0.0
2014-Sep-02 04:32N 49°18' W 123°08'0 0.0
2014-Sep-02 03:32N 49°18' W 123°08'0 0.0
2014-Sep-02 02:32N 49°18' W 123°08'0 0.0
2014-Sep-02 01:32N 49°18' W 123°08'0 0.0
2014-Sep-02 00:32N 49°18' W 123°08'0 0.0
2014-Sep-01 23:32N 49°18' W 123°08'0 0.0
2014-Sep-01 22:32N 49°18' W 123°08'4 4.4
2014-Sep-01 21:33N 49°18' W 123°14'8 8.3
2014-Sep-01 20:33N 49°10' W 123°19'9 9.1
2014-Sep-01 19:32N 49°01' W 123°19'9 8.8
2014-Sep-01 18:33N 48°53' W 123°18'18 8.1
2014-Sep-01 16:21N 48°35' W 123°19'7 9.4
2014-Sep-01 15:33N 48°28' W 123°15'6 6.3
2014-Sep-01 14:33N 48°25' W 123°24'1 0.2
2014-Sep-01 09:03N 48°25' W 123°22'0 0.0
2014-Aug-31 20:33N 48°25' W 123°23'1 1.2
2014-Aug-31 19:33N 48°24' W 123°24'1 1.1
2014-Aug-31 18:32N 48°25' W 123°23'0 0.4
2014-Aug-31 17:28N 48°25' W 123°22'0 0.0
2014-Aug-31 16:28N 48°25' W 123°22'0 0.0
2014-Aug-31 15:28N 48°25' W 123°22'0 0.0
2014-Aug-31 14:28N 48°25' W 123°22'0 0.0
2014-Aug-31 13:28N 48°25' W 123°22'0 0.0
2014-Aug-31 12:31N 48°25' W 123°22'0 0.0
2014-Aug-31 11:28N 48°25' W 123°22'0 0.0
2014-Aug-31 10:28N 48°25' W 123°22'0 0.0
2014-Aug-31 09:28N 48°25' W 123°22'0 0.0
2014-Aug-31 08:31N 48°25' W 123°22'0 0.0
2014-Aug-31 07:31N 48°25' W 123°22'0 0.0
2014-Aug-31 06:32N 48°25' W 123°22'0 0.0
2014-Aug-31 05:28N 48°25' W 123°22'0 0.0
2014-Aug-31 04:25N 48°25' W 123°22'0 0.0
2014-Aug-31 03:32N 48°25' W 123°22'0 0.0
2014-Aug-31 00:31N 48°25' W 123°22'0 0.0
2014-Aug-30 23:13N 48°25' W 123°22'0 0.0
2014-Aug-30 21:32N 48°25' W 123°22'0 0.0
2014-Aug-30 20:31N 48°25' W 123°22'0 0.0
2014-Aug-30 19:13N 48°25' W 123°22'0 0.0
2014-Aug-30 18:25N 48°25' W 123°22'0 0.0
2014-Aug-30 17:31N 48°25' W 123°22'0 0.0
2014-Aug-30 16:33N 48°25' W 123°22'0 0.0
2014-Aug-30 15:33N 48°25' W 123°22'0 0.0
2014-Aug-30 14:33N 48°25' W 123°22'0 0.0
2014-Aug-30 13:33N 48°25' W 123°22'0 0.0
2014-Aug-30 12:33N 48°25' W 123°22'0 0.0
2014-Aug-30 11:33N 48°25' W 123°22'0 0.0
2014-Aug-30 10:25N 48°25' W 123°22'0 0.0
2014-Aug-30 09:31N 48°25' W 123°22'0 0.0
2014-Aug-30 08:31N 48°25' W 123°22'0 0.0
2014-Aug-30 07:31N 48°25' W 123°22'0 0.0
2014-Aug-30 06:31N 48°25' W 123°22'0 0.0
2014-Aug-30 05:31N 48°25' W 123°22'0 0.0
2014-Aug-30 04:25N 48°25' W 123°22'0 0.0
2014-Aug-30 03:31N 48°25' W 123°22'0 0.0
2014-Aug-30 02:31N 48°25' W 123°22'0 0.0
2014-Aug-30 01:31N 48°25' W 123°22'0 0.0
2014-Aug-30 00:31N 48°25' W 123°22'0 0.0
2014-Aug-29 23:31N 48°25' W 123°22'0 0.0
2014-Aug-29 22:26N 48°25' W 123°22'0 0.0
2014-Aug-29 21:32N 48°25' W 123°22'0 0.0
2014-Aug-29 17:14N 48°25' W 123°22'0 0.0
2014-Aug-29 16:32N 48°25' W 123°22'0 0.0
2014-Aug-29 15:20N 48°25' W 123°22'0 0.0
2014-Aug-29 14:32N 48°25' W 123°22'0 0.0
2014-Aug-29 13:32N 48°25' W 123°22'0 0.0
2014-Aug-29 12:32N 48°25' W 123°22'0 0.0
2014-Aug-29 11:32N 48°25' W 123°22'0 0.0
2014-Aug-29 10:29N 48°25' W 123°22'0 0.0
2014-Aug-29 09:29N 48°25' W 123°22'0 0.0
2014-Aug-29 08:29N 48°25' W 123°22'0 0.0
2014-Aug-29 07:32N 48°25' W 123°22'0 0.0
2014-Aug-29 06:32N 48°25' W 123°22'0 0.0
2014-Aug-29 03:11N 48°25' W 123°22'0 0.0
2014-Aug-29 00:29N 48°25' W 123°22'0 0.0
2014-Aug-28 23:23N 48°25' W 123°22'0 0.0
2014-Aug-28 22:28N 48°25' W 123°22'1 1.6
2014-Aug-28 21:33N 48°24' W 123°23'6 6.3
2014-Aug-28 20:33N 48°27' W 123°15'28 9.2
2014-Aug-28 17:32N 48°55' W 123°18'9 9.1
2014-Aug-28 16:33N 49°04' W 123°19'9 8.8
2014-Aug-28 15:33N 49°13' W 123°19'8 7.9
2014-Aug-28 14:33N 49°19' W 123°11'2 2.3
2014-Aug-28 13:32N 49°18' W 123°08'0 0.0
2014-Aug-28 12:32N 49°18' W 123°08'0 0.0
2014-Aug-28 11:32N 49°18' W 123°08'0 0.0
2014-Aug-28 10:32N 49°18' W 123°08'0 0.0
2014-Aug-28 09:32N 49°18' W 123°08'0 0.0
2014-Aug-28 08:32N 49°18' W 123°08'0 0.0
2014-Aug-28 07:32N 49°18' W 123°08'0 0.0
2014-Aug-28 06:32N 49°18' W 123°08'0 0.0
2014-Aug-28 05:32N 49°18' W 123°08'0 0.0
2014-Aug-28 04:32N 49°18' W 123°08'0 0.0
2014-Aug-28 03:32N 49°18' W 123°08'0 0.0
2014-Aug-28 02:29N 49°18' W 123°08'0 0.0
2014-Aug-28 01:32N 49°18' W 123°08'0 0.0
2014-Aug-28 00:32N 49°18' W 123°08'0 0.0
2014-Aug-27 23:32N 49°18' W 123°08'0 0.0
2014-Aug-27 22:32N 49°18' W 123°08'0 0.0
2014-Aug-27 21:32N 49°18' W 123°08'0 0.0
2014-Aug-27 20:32N 49°18' W 123°08'0 0.0
2014-Aug-27 19:32N 49°18' W 123°08'0 0.0
2014-Aug-27 18:32N 49°18' W 123°08'0 0.0
2014-Aug-27 17:32N 49°18' W 123°08'0 0.0
2014-Aug-27 16:32N 49°18' W 123°08'0 0.0
2014-Aug-27 15:32N 49°18' W 123°08'0 0.0
2014-Aug-27 14:32N 49°18' W 123°08'0 0.0
2014-Aug-27 13:32N 49°18' W 123°08'0 0.0
2014-Aug-27 12:32N 49°18' W 123°08'0 0.0
2014-Aug-27 11:32N 49°18' W 123°08'0 0.0
2014-Aug-27 10:32N 49°18' W 123°08'0 0.0
2014-Aug-27 09:32N 49°18' W 123°08'0 0.0
2014-Aug-27 08:29N 49°18' W 123°08'0 0.0
2014-Aug-27 07:32N 49°18' W 123°08'0 0.0
2014-Aug-27 06:32N 49°18' W 123°08'0 0.0
2014-Aug-27 05:32N 49°18' W 123°08'0 0.0
2014-Aug-27 04:32N 49°18' W 123°08'0 0.0
2014-Aug-27 03:32N 49°18' W 123°08'0 0.0
2014-Aug-27 02:32N 49°18' W 123°08'0 0.0
2014-Aug-27 01:32N 49°18' W 123°08'0 0.0
2014-Aug-27 00:32N 49°18' W 123°08'0 0.0
2014-Aug-26 23:32N 49°18' W 123°08'0 0.0
2014-Aug-26 22:32N 49°18' W 123°08'0 0.0
2014-Aug-26 21:32N 49°18' W 123°08'0 0.0
2014-Aug-26 20:32N 49°18' W 123°08'0 0.0
2014-Aug-26 19:32N 49°18' W 123°08'0 0.0
2014-Aug-26 18:32N 49°18' W 123°08'0 0.0
2014-Aug-26 17:32N 49°18' W 123°08'0 0.0
2014-Aug-26 16:33N 49°18' W 123°08'0 0.0
2014-Aug-26 15:33N 49°18' W 123°08'0 0.0
2014-Aug-26 14:33N 49°18' W 123°08'0 0.0
2014-Aug-26 13:33N 49°18' W 123°08'0 0.0
2014-Aug-26 12:33N 49°18' W 123°08'0 0.0
2014-Aug-26 11:33N 49°18' W 123°08'0 0.0
2014-Aug-26 10:33N 49°18' W 123°08'0 0.0
2014-Aug-26 09:31N 49°18' W 123°08'0 0.0
2014-Aug-26 08:31N 49°18' W 123°08'0 0.0
2014-Aug-26 07:31N 49°18' W 123°08'0 0.0
2014-Aug-26 06:31N 49°18' W 123°08'0 0.0
2014-Aug-26 05:31N 49°18' W 123°08'0 0.0
2014-Aug-26 04:31N 49°18' W 123°08'0 0.0
2014-Aug-26 03:31N 49°18' W 123°08'0 0.0
2014-Aug-26 02:31N 49°18' W 123°08'0 0.0
2014-Aug-26 01:31N 49°18' W 123°08'0 0.0
2014-Aug-26 00:31N 49°18' W 123°08'0 0.0
2014-Aug-25 23:31N 49°18' W 123°08'0 0.0
2014-Aug-25 22:31N 49°18' W 123°08'0 0.0
2014-Aug-25 21:31N 49°18' W 123°08'0 0.0
2014-Aug-25 20:31N 49°18' W 123°08'0 0.0
2014-Aug-25 19:31N 49°18' W 123°08'0 0.0
2014-Aug-25 18:31N 49°18' W 123°08'0 0.0
2014-Aug-25 17:29N 49°18' W 123°08'0 0.0
2014-Aug-25 16:32N 49°18' W 123°08'0 0.0
2014-Aug-25 15:32N 49°18' W 123°08'0 0.0
2014-Aug-25 14:32N 49°18' W 123°08'0 0.0
2014-Aug-25 13:32N 49°18' W 123°08'0 0.0
2014-Aug-25 12:32N 49°18' W 123°08'0 0.0
2014-Aug-25 11:32N 49°18' W 123°08'0 0.0
2014-Aug-25 10:32N 49°18' W 123°08'0 0.0
2014-Aug-25 09:32N 49°18' W 123°08'0 0.0
2014-Aug-25 08:32N 49°18' W 123°08'0 0.0
2014-Aug-25 07:32N 49°18' W 123°08'0 0.0
2014-Aug-25 06:32N 49°18' W 123°08'0 0.0
2014-Aug-25 05:32N 49°18' W 123°08'0 0.0
2014-Aug-25 04:33N 49°18' W 123°08'0 0.0
2014-Aug-25 03:31N 49°18' W 123°08'0 0.0
2014-Aug-25 02:31N 49°18' W 123°08'0 0.0
2014-Aug-25 01:31N 49°18' W 123°08'0 0.0
2014-Aug-25 00:31N 49°18' W 123°08'0 0.0
2014-Aug-24 23:31N 49°18' W 123°08'0 0.0
2014-Aug-24 22:31N 49°18' W 123°08'3 3.4
2014-Aug-24 21:33N 49°18' W 123°13'9 9.0
2014-Aug-24 20:33N 49°14' W 123°25'9 8.7
2014-Aug-24 19:30N 49°10' W 123°38'  

Dump ship's entire track history